Time;durP1;ratioP1;P1;durP2;ratioP2;P2;SDS_P1;SDS_P2;PMS_P1;PMS_P2;Temp;Humidity;BMP_temperature;BMP_pressure;BME280_temperature;BME280_humidity;BME280_pressure;Samples;Min_cycle;Max_cycle;Signal;HPM_P1;HPM_P2
2022/01/05 00:01:17;;;;;;;4.43;1.35;;;;;;;;;;4919804;29;20027;-81
2022/01/05 00:03:44;;;;;;;22.85;1.70;;;;;;;;;;4928530;28;20586;-80
2022/01/05 00:06:10;;;;;;;10.80;1.10;;;;;;;;;;4920026;28;20031;-80
2022/01/05 00:08:36;;;;;;;4.00;1.30;;;;;;;;;;4938738;28;20039;-81
2022/01/05 00:11:02;;;;;;;8.85;1.75;;;;;;;;;;4935142;28;20886;-80
2022/01/05 00:13:28;;;;;;;6.63;0.85;;;;;;;;;;4927542;28;20039;-80
2022/01/05 00:15:54;;;;;;;12.77;1.50;;;;;;;;;;4921927;29;20110;-80
2022/01/05 00:18:20;;;;;;;12.20;1.17;;;;;;;;;;4922155;28;20079;-80
2022/01/05 00:20:46;;;;;;;6.93;1.25;;;;;;;;;;4937188;28;20030;-80
2022/01/05 00:23:12;;;;;;;4.72;1.13;;;;;;;;;;4919763;28;20055;-80
2022/01/05 00:25:38;;;;;;;7.43;1.38;;;;;;;;;;4926202;28;20115;-80
2022/01/05 00:28:04;;;;;;;8.77;1.10;;;;;;;;;;4916940;29;20133;-81
2022/01/05 00:30:31;;;;;;;1.52;0.57;;;;;;;;;;4943178;28;20032;-80
2022/01/05 00:32:57;;;;;;;8.68;1.13;;;;;;;;;;4922543;28;20110;-80
2022/01/05 00:35:36;;;;;;;7.72;1.45;;;;;;;;;;4946911;28;20055;-80
2022/01/05 00:38:02;;;;;;;6.70;1.98;;;;;;;;;;4960059;28;20432;-80
2022/01/05 00:40:28;;;;;;;1.15;0.40;;;;;;;;;;4941793;28;20061;-81
2022/01/05 00:42:54;;;;;;;11.82;2.17;;;;;;;;;;4962241;28;20561;-81
2022/01/05 00:45:20;;;;;;;22.75;1.95;;;;;;;;;;4936575;28;20038;-80
2022/01/05 00:47:46;;;;;;;16.15;2.00;;;;;;;;;;4942338;28;20058;-81
2022/01/05 00:50:15;;;;;;;7.55;1.80;;;;;;;;;;4947192;28;20388;-80
2022/01/05 00:52:41;;;;;;;12.93;2.13;;;;;;;;;;4949143;28;20522;-81
2022/01/05 00:55:07;;;;;;;2.22;0.65;;;;;;;;;;4954890;28;20055;-80
2022/01/05 00:57:33;;;;;;;10.20;1.90;;;;;;;;;;4946018;28;20046;-81
2022/01/05 00:59:59;;;;;;;4.43;1.13;;;;;;;;;;4940708;28;20092;-80
2022/01/05 01:02:25;;;;;;;12.20;1.60;;;;;;;;;;4957825;28;20054;-81
2022/01/05 01:04:51;;;;;;;6.03;1.55;;;;;;;;;;4942105;28;20093;-81
2022/01/05 01:07:18;;;;;;;8.73;1.65;;;;;;;;;;4945266;28;20046;-81
2022/01/05 01:09:43;;;;;;;11.63;1.67;;;;;;;;;;4945567;28;20038;-80
2022/01/05 01:12:10;;;;;;;4.57;1.20;;;;;;;;;;4948146;28;20031;-80
2022/01/05 01:14:36;;;;;;;7.90;1.85;;;;;;;;;;4949495;28;20035;-80
2022/01/05 01:17:02;;;;;;;1.27;0.60;;;;;;;;;;4941443;28;20605;-80
2022/01/05 01:19:28;;;;;;;11.07;1.85;;;;;;;;;;4944490;28;20050;-81
2022/01/05 01:21:55;;;;;;;6.10;1.45;;;;;;;;;;4942118;28;20494;-80
2022/01/05 01:24:21;;;;;;;13.90;2.78;;;;;;;;;;4942581;28;20502;-80
2022/01/05 01:26:48;;;;;;;8.82;1.30;;;;;;;;;;4946109;28;20035;-81
2022/01/05 01:29:14;;;;;;;20.20;2.63;;;;;;;;;;4934604;28;20739;-80
2022/01/05 01:31:40;;;;;;;12.52;2.28;;;;;;;;;;4958311;28;20105;-81
2022/01/05 01:34:06;;;;;;;1.38;0.63;;;;;;;;;;4935152;28;20454;-80
2022/01/05 01:36:32;;;;;;;10.63;1.30;;;;;;;;;;4962420;28;20047;-80
2022/01/05 01:38:59;;;;;;;8.52;1.92;;;;;;;;;;4940389;28;20026;-81
2022/01/05 01:41:25;;;;;;;38.30;1.58;;;;;;;;;;4958871;28;20498;-80
2022/01/05 01:43:52;;;;;;;4.43;0.88;;;;;;;;;;4939788;28;20050;-80
2022/01/05 01:46:18;;;;;;;17.02;3.15;;;;;;;;;;4943340;28;20073;-81
2022/01/05 01:48:44;;;;;;;17.90;1.83;;;;;;;;;;4945894;28;20037;-80
2022/01/05 01:51:11;;;;;;;9.15;2.97;;;;;;;;;;4941407;28;20045;-81
2022/01/05 01:53:37;;;;;;;7.82;2.13;;;;;;;;;;4961158;28;20236;-80
2022/01/05 01:56:04;;;;;;;16.02;1.95;;;;;;;;;;4939761;28;20065;-80
2022/01/05 01:58:34;;;;;;;6.22;1.15;;;;;;;;;;4939415;28;20158;-80
2022/01/05 02:01:00;;;;;;;9.32;1.80;;;;;;;;;;4942999;28;20032;-80
2022/01/05 02:03:26;;;;;;;18.30;2.47;;;;;;;;;;4957901;28;20030;-80
2022/01/05 02:05:52;;;;;;;10.75;2.00;;;;;;;;;;4939965;28;20051;-80
2022/01/05 02:08:18;;;;;;;16.77;1.85;;;;;;;;;;4960048;28;20058;-81
2022/01/05 02:10:45;;;;;;;21.48;2.00;;;;;;;;;;4942067;28;20125;-80
2022/01/05 02:13:11;;;;;;;13.07;2.38;;;;;;;;;;4946606;28;20399;-81
2022/01/05 02:15:37;;;;;;;10.82;2.10;;;;;;;;;;4959044;28;20518;-81
2022/01/05 02:20:30;;;;;;;9.55;1.80;;;;;;;;;;4959966;28;20038;-81
2022/01/05 02:22:56;;;;;;;5.45;1.20;;;;;;;;;;4956234;28;20038;-80
2022/01/05 02:25:23;;;;;;;19.48;2.08;;;;;;;;;;4945727;28;20375;-80
2022/01/05 02:27:50;;;;;;;13.07;2.10;;;;;;;;;;4955664;28;20410;-80
2022/01/05 02:30:21;;;;;;;8.40;1.23;;;;;;;;;;4941937;28;20031;-80
2022/01/05 02:32:47;;;;;;;10.25;1.88;;;;;;;;;;4937484;28;20109;-80
2022/01/05 02:35:27;;;;;;;16.55;1.60;;;;;;;;;;4945238;28;20081;-80
2022/01/05 02:37:54;;;;;;;13.82;1.92;;;;;;;;;;4956600;28;20039;-80
2022/01/05 02:40:21;;;;;;;14.52;2.33;;;;;;;;;;4947735;28;20464;-80
2022/01/05 02:42:47;;;;;;;7.68;1.15;;;;;;;;;;4942759;28;20030;-80
2022/01/05 02:45:14;;;;;;;15.15;1.65;;;;;;;;;;4937234;28;20480;-81
2022/01/05 02:47:41;;;;;;;20.75;1.73;;;;;;;;;;4941457;28;20027;-80
2022/01/05 02:50:08;;;;;;;15.27;2.58;;;;;;;;;;4933872;28;20069;-80
2022/01/05 02:52:34;;;;;;;13.82;1.67;;;;;;;;;;4942855;28;20034;-80
2022/01/05 02:55:02;;;;;;;6.97;1.70;;;;;;;;;;4955029;28;20368;-80
2022/01/05 02:57:29;;;;;;;4.80;1.27;;;;;;;;;;4942027;28;20620;-80
2022/01/05 02:59:55;;;;;;;27.40;3.00;;;;;;;;;;4939925;28;20439;-80
2022/01/05 03:02:21;;;;;;;16.77;1.75;;;;;;;;;;4940235;28;20125;-80
2022/01/05 03:04:48;;;;;;;19.55;2.30;;;;;;;;;;4952733;28;20298;-80
2022/01/05 03:07:15;;;;;;;4.25;1.35;;;;;;;;;;4941370;28;21110;-81
2022/01/05 03:09:42;;;;;;;26.65;2.60;;;;;;;;;;4941540;28;20094;-81
2022/01/05 03:12:08;;;;;;;24.23;2.58;;;;;;;;;;4950045;28;20031;-81
2022/01/05 03:14:34;;;;;;;22.63;2.63;;;;;;;;;;4957823;28;20036;-80
2022/01/05 03:17:00;;;;;;;14.85;2.25;;;;;;;;;;4955425;28;20062;-80
2022/01/05 03:19:26;;;;;;;14.80;2.00;;;;;;;;;;4943070;28;20436;-80
2022/01/05 03:21:52;;;;;;;11.48;1.83;;;;;;;;;;4955537;28;20122;-80
2022/01/05 03:24:18;;;;;;;18.92;2.38;;;;;;;;;;4940043;28;20067;-81
2022/01/05 03:26:44;;;;;;;10.32;1.67;;;;;;;;;;4941328;28;20057;-80
2022/01/05 03:29:10;;;;;;;9.40;1.25;;;;;;;;;;4936639;28;20684;-80
2022/01/05 03:31:36;;;;;;;15.45;1.45;;;;;;;;;;4946955;28;20035;-81
2022/01/05 03:34:04;;;;;;;15.25;1.65;;;;;;;;;;4930800;28;20603;-80
2022/01/05 03:36:30;;;;;;;6.38;0.65;;;;;;;;;;4934360;28;20036;-80
2022/01/05 03:38:56;;;;;;;10.80;1.80;;;;;;;;;;4921244;28;20544;-81
2022/01/05 03:41:22;;;;;;;12.32;1.88;;;;;;;;;;4922766;28;20031;-80
2022/01/05 03:43:48;;;;;;;5.57;1.88;;;;;;;;;;4916270;28;20039;-81
2022/01/05 03:46:15;;;;;;;10.63;2.25;;;;;;;;;;4920732;28;20039;-80
2022/01/05 03:48:41;;;;;;;7.20;2.17;;;;;;;;;;4924284;28;20067;-80
2022/01/05 03:51:07;;;;;;;10.43;1.58;;;;;;;;;;4920408;28;20035;-80
2022/01/05 03:53:33;;;;;;;9.60;1.27;;;;;;;;;;4918332;29;20126;-81
2022/01/05 03:56:01;;;;;;;13.90;1.67;;;;;;;;;;4909304;28;20134;-80
2022/01/05 03:58:27;;;;;;;6.50;1.98;;;;;;;;;;4919583;29;20027;-80
2022/01/05 04:00:53;;;;;;;4.03;1.00;;;;;;;;;;4912840;28;20139;-80
2022/01/05 04:03:20;;;;;;;12.15;2.00;;;;;;;;;;4920445;28;20053;-80
2022/01/05 04:05:46;;;;;;;10.38;1.95;;;;;;;;;;4917986;29;20481;-80
2022/01/05 04:08:12;;;;;;;14.07;2.25;;;;;;;;;;4917111;28;20576;-80
2022/01/05 04:10:39;;;;;;;4.25;0.70;;;;;;;;;;4925322;28;20032;-80
2022/01/05 04:13:05;;;;;;;5.15;1.40;;;;;;;;;;4914853;28;20027;-80
2022/01/05 04:15:31;;;;;;;21.35;1.35;;;;;;;;;;4926568;29;20035;-80
2022/01/05 04:17:57;;;;;;;9.10;1.42;;;;;;;;;;4922922;28;20403;-80
2022/01/05 04:20:23;;;;;;;9.60;2.25;;;;;;;;;;4919558;29;20036;-80
2022/01/05 04:22:49;;;;;;;9.38;0.63;;;;;;;;;;4933551;28;20038;-81
2022/01/05 04:25:16;;;;;;;6.78;0.63;;;;;;;;;;4924499;28;20127;-80
2022/01/05 04:27:42;;;;;;;3.75;1.00;;;;;;;;;;4920110;28;20065;-80
2022/01/05 04:30:09;;;;;;;6.22;0.82;;;;;;;;;;4925904;28;20047;-80
2022/01/05 04:32:35;;;;;;;7.30;1.27;;;;;;;;;;4915824;28;20051;-81
2022/01/05 04:35:03;;;;;;;4.50;1.50;;;;;;;;;;4939696;28;20047;-80
2022/01/05 04:37:31;;;;;;;5.93;1.20;;;;;;;;;;4941036;28;20113;-80
2022/01/05 04:39:58;;;;;;;7.32;1.20;;;;;;;;;;4916604;28;20036;-80
2022/01/05 04:42:24;;;;;;;2.20;0.90;;;;;;;;;;4922158;29;20040;-80
2022/01/05 04:44:51;;;;;;;7.57;1.52;;;;;;;;;;4917165;29;20032;-81
2022/01/05 04:47:17;;;;;;;21.10;3.08;;;;;;;;;;4926027;29;20035;-81
2022/01/05 04:49:43;;;;;;;7.55;1.48;;;;;;;;;;4918885;29;20103;-80
2022/01/05 04:52:09;;;;;;;8.50;0.98;;;;;;;;;;4922062;29;20052;-81
2022/01/05 04:54:35;;;;;;;14.10;1.65;;;;;;;;;;4914644;29;20028;-80
2022/01/05 04:57:01;;;;;;;11.52;1.30;;;;;;;;;;4925549;28;20038;-80
2022/01/05 04:59:27;;;;;;;13.32;2.03;;;;;;;;;;4920693;28;20122;-80
2022/01/05 05:01:53;;;;;;;3.88;1.08;;;;;;;;;;4933756;28;20440;-80
2022/01/05 05:04:19;;;;;;;9.70;1.83;;;;;;;;;;4924632;28;20027;-80
2022/01/05 05:06:46;;;;;;;9.65;0.98;;;;;;;;;;4930899;28;20458;-80
2022/01/05 05:09:13;;;;;;;15.05;1.55;;;;;;;;;;4918723;28;20054;-81
2022/01/05 05:11:39;;;;;;;13.23;1.77;;;;;;;;;;4918158;28;21659;-81
2022/01/05 05:14:05;;;;;;;6.43;2.35;;;;;;;;;;4939777;28;20760;-80
2022/01/05 05:16:31;;;;;;;11.15;1.38;;;;;;;;;;4923207;28;20273;-80
2022/01/05 05:18:57;;;;;;;13.13;2.28;;;;;;;;;;4926098;28;20046;-80
2022/01/05 05:21:23;;;;;;;12.38;1.70;;;;;;;;;;4926918;29;20054;-80
2022/01/05 05:23:49;;;;;;;7.35;1.02;;;;;;;;;;4921183;28;20476;-80
2022/01/05 05:26:15;;;;;;;8.00;1.70;;;;;;;;;;4926873;28;20038;-80
2022/01/05 05:28:41;;;;;;;7.82;2.17;;;;;;;;;;4916888;29;20061;-80
2022/01/05 05:31:07;;;;;;;13.60;2.05;;;;;;;;;;4941999;28;20023;-80
2022/01/05 05:33:33;;;;;;;12.88;1.65;;;;;;;;;;4924608;28;20031;-81
2022/01/05 05:35:59;;;;;;;8.27;1.63;;;;;;;;;;4927748;28;20139;-80
2022/01/05 05:38:25;;;;;;;4.30;1.45;;;;;;;;;;4923360;28;20536;-80
2022/01/05 05:40:51;;;;;;;13.93;2.20;;;;;;;;;;4945821;28;20118;-80
2022/01/05 05:43:17;;;;;;;3.15;1.00;;;;;;;;;;4919201;28;20883;-81
2022/01/05 05:45:44;;;;;;;9.52;2.17;;;;;;;;;;4925462;28;20164;-80
2022/01/05 05:48:10;;;;;;;11.85;1.10;;;;;;;;;;4926942;28;20039;-80
2022/01/05 05:50:36;;;;;;;12.02;1.60;;;;;;;;;;4939664;28;20677;-79
2022/01/05 05:53:02;;;;;;;2.08;1.00;;;;;;;;;;4922794;29;20042;-79
2022/01/05 05:55:28;;;;;;;11.80;0.98;;;;;;;;;;4939654;28;20040;-79
2022/01/05 05:57:54;;;;;;;15.43;2.08;;;;;;;;;;4921643;29;20510;-80
2022/01/05 06:00:21;;;;;;;15.43;2.65;;;;;;;;;;4921765;28;20040;-80
2022/01/05 06:02:48;;;;;;;23.48;3.28;;;;;;;;;;4941151;28;20020;-80
2022/01/05 06:05:14;;;;;;;11.52;1.45;;;;;;;;;;4921166;28;21026;-80
2022/01/05 06:07:40;;;;;;;2.40;1.02;;;;;;;;;;4923835;28;20051;-79
2022/01/05 06:10:07;;;;;;;16.00;2.25;;;;;;;;;;4924156;28;20167;-79
2022/01/05 06:12:33;;;;;;;8.48;0.70;;;;;;;;;;4936994;28;20043;-79
2022/01/05 06:14:59;;;;;;;8.32;1.15;;;;;;;;;;4942684;28;20043;-79
2022/01/05 06:17:26;;;;;;;4.43;1.25;;;;;;;;;;4915057;28;20189;-80
2022/01/05 06:19:52;;;;;;;7.70;1.63;;;;;;;;;;4920889;29;20031;-80
2022/01/05 06:22:18;;;;;;;17.83;1.58;;;;;;;;;;4922360;28;20038;-80
2022/01/05 06:24:44;;;;;;;16.73;3.35;;;;;;;;;;4922242;29;20024;-80
2022/01/05 06:27:11;;;;;;;12.02;1.95;;;;;;;;;;4920501;28;20035;-80
2022/01/05 06:29:37;;;;;;;8.40;1.27;;;;;;;;;;4924582;28;20289;-80
2022/01/05 06:32:04;;;;;;;8.18;1.45;;;;;;;;;;4934452;28;20039;-80
2022/01/05 06:34:30;;;;;;;7.38;1.70;;;;;;;;;;4932312;28;20041;-80
2022/01/05 06:36:56;;;;;;;16.65;1.92;;;;;;;;;;4926384;28;20134;-80
2022/01/05 06:39:22;;;;;;;24.02;2.72;;;;;;;;;;4914419;29;20499;-79
2022/01/05 06:41:48;;;;;;;18.13;2.08;;;;;;;;;;4923340;29;20028;-80
2022/01/05 06:44:14;;;;;;;13.50;1.52;;;;;;;;;;4933836;28;20168;-80
2022/01/05 06:46:40;;;;;;;14.80;3.05;;;;;;;;;;4940263;28;20150;-80
2022/01/05 06:49:06;;;;;;;12.32;2.08;;;;;;;;;;4919123;29;20020;-80
2022/01/05 06:51:32;;;;;;;13.68;1.17;;;;;;;;;;4920104;28;20043;-80
2022/01/05 06:53:58;;;;;;;8.63;1.83;;;;;;;;;;4931012;28;20038;-80
2022/01/05 06:56:25;;;;;;;22.05;2.78;;;;;;;;;;4922078;29;20469;-80
2022/01/05 06:58:51;;;;;;;1.30;0.52;;;;;;;;;;4925372;28;20135;-80
2022/01/05 07:01:17;;;;;;;10.57;1.13;;;;;;;;;;4918744;28;20588;-80
2022/01/05 07:03:43;;;;;;;17.13;2.08;;;;;;;;;;4922626;28;20043;-80
2022/01/05 07:06:09;;;;;;;12.63;1.80;;;;;;;;;;4917655;29;20118;-80
2022/01/05 07:08:35;;;;;;;15.35;2.65;;;;;;;;;;4920055;28;20066;-80
2022/01/05 07:11:01;;;;;;;7.53;1.60;;;;;;;;;;4929366;28;20067;-80
2022/01/05 07:13:27;;;;;;;18.23;2.28;;;;;;;;;;4926219;28;20030;-80
2022/01/05 07:15:53;;;;;;;11.40;1.48;;;;;;;;;;4932539;28;20490;-80
2022/01/05 07:18:19;;;;;;;12.70;1.40;;;;;;;;;;4938716;28;20106;-80
2022/01/05 07:20:45;;;;;;;14.65;1.58;;;;;;;;;;4935670;28;20481;-80
2022/01/05 07:23:18;;;;;;;4.88;0.85;;;;;;;;;;4914339;29;20035;-80
2022/01/05 07:25:44;;;;;;;13.65;2.08;;;;;;;;;;4938624;28;20032;-80
2022/01/05 07:28:10;;;;;;;10.82;1.35;;;;;;;;;;4932266;28;20019;-80
2022/01/05 07:30:37;;;;;;;6.20;1.45;;;;;;;;;;4940070;28;20039;-80
2022/01/05 07:33:03;;;;;;;11.90;1.05;;;;;;;;;;4937128;28;20035;-80
2022/01/05 07:35:29;;;;;;;10.65;1.60;;;;;;;;;;4918066;29;20027;-80
2022/01/05 07:37:55;;;;;;;7.80;1.10;;;;;;;;;;4924665;28;20046;-80
2022/01/05 07:40:21;;;;;;;7.30;1.33;;;;;;;;;;4937225;28;20028;-80
2022/01/05 07:42:47;;;;;;;8.05;1.30;;;;;;;;;;4917676;28;20480;-80
2022/01/05 07:45:13;;;;;;;5.28;1.10;;;;;;;;;;4919187;28;20039;-80
2022/01/05 07:47:39;;;;;;;4.93;1.05;;;;;;;;;;4922499;29;20046;-80
2022/01/05 07:50:11;;;;;;;12.07;2.88;;;;;;;;;;4921446;28;20090;-80
2022/01/05 07:52:38;;;;;;;15.32;2.15;;;;;;;;;;4922167;29;20440;-80
2022/01/05 07:55:07;;;;;;;6.65;1.77;;;;;;;;;;4926191;28;20456;-80
2022/01/05 07:57:33;;;;;;;25.42;4.50;;;;;;;;;;4921959;28;20040;-80
2022/01/05 07:59:59;;;;;;;7.28;2.25;;;;;;;;;;4935351;28;20377;-80
2022/01/05 08:02:25;;;;;;;9.35;1.95;;;;;;;;;;4939349;28;20047;-80
2022/01/05 08:04:51;;;;;;;13.50;1.38;;;;;;;;;;4917601;28;20078;-80
2022/01/05 08:07:17;;;;;;;16.58;1.75;;;;;;;;;;4923914;28;20496;-80
2022/01/05 08:09:44;;;;;;;7.90;1.20;;;;;;;;;;4923915;28;20110;-80
2022/01/05 08:12:16;;;;;;;11.23;1.63;;;;;;;;;;4919801;29;20440;-80
2022/01/05 08:14:42;;;;;;;4.85;0.68;;;;;;;;;;4918245;29;20023;-80
2022/01/05 08:17:08;;;;;;;9.85;1.30;;;;;;;;;;4914010;29;20441;-80
2022/01/05 08:19:35;;;;;;;4.65;0.60;;;;;;;;;;4918465;28;20043;-80
2022/01/05 08:22:01;;;;;;;8.23;2.08;;;;;;;;;;4935267;28;20122;-80
2022/01/05 08:24:27;;;;;;;10.00;1.00;;;;;;;;;;4920808;28;20031;-80
2022/01/05 08:26:53;;;;;;;13.02;1.60;;;;;;;;;;4921199;28;20046;-80
2022/01/05 08:29:20;;;;;;;9.25;1.70;;;;;;;;;;4922944;28;20036;-79
2022/01/05 08:31:46;;;;;;;10.27;1.15;;;;;;;;;;4919143;28;20135;-80
2022/01/05 08:34:12;;;;;;;10.77;2.35;;;;;;;;;;4919221;28;20123;-80
2022/01/05 08:36:38;;;;;;;8.80;1.70;;;;;;;;;;4929183;28;20034;-79
2022/01/05 08:39:04;;;;;;;15.60;2.50;;;;;;;;;;4935081;28;20035;-79
2022/01/05 08:41:30;;;;;;;11.90;0.90;;;;;;;;;;4943578;28;20027;-80
2022/01/05 08:43:56;;;;;;;2.55;0.40;;;;;;;;;;4936705;28;20138;-79
2022/01/05 08:46:23;;;;;;;3.80;1.35;;;;;;;;;;4958139;28;20498;-79
2022/01/05 08:48:49;;;;;;;13.90;2.55;;;;;;;;;;4937622;28;20519;-79
2022/01/05 08:51:15;;;;;;;13.45;0.95;;;;;;;;;;4958879;28;20099;-79
2022/01/05 08:53:41;;;;;;;24.38;2.28;;;;;;;;;;4935405;28;20494;-79
2022/01/05 08:56:07;;;;;;;16.38;1.67;;;;;;;;;;4965128;28;20457;-80
2022/01/05 08:58:33;;;;;;;24.15;2.28;;;;;;;;;;4940011;28;20030;-80
2022/01/05 09:01:00;;;;;;;18.67;2.75;;;;;;;;;;4933011;28;20081;-80
2022/01/05 09:03:26;;;;;;;14.35;2.75;;;;;;;;;;4941583;28;20077;-80
2022/01/05 09:05:52;;;;;;;27.60;3.95;;;;;;;;;;4941763;28;20446;-80
2022/01/05 09:08:18;;;;;;;11.55;2.20;;;;;;;;;;4947202;28;20117;-80
2022/01/05 09:10:44;;;;;;;10.00;1.55;;;;;;;;;;4957332;28;20045;-80
2022/01/05 09:13:11;;;;;;;16.95;2.40;;;;;;;;;;4958348;28;20086;-80
2022/01/05 09:15:37;;;;;;;19.92;1.92;;;;;;;;;;4943293;28;20681;-80
2022/01/05 09:18:04;;;;;;;23.63;1.52;;;;;;;;;;4957166;28;20041;-80
2022/01/05 09:20:31;;;;;;;27.75;2.60;;;;;;;;;;4944206;28;20487;-80
2022/01/05 09:22:57;;;;;;;17.50;1.90;;;;;;;;;;4940386;28;20039;-80
2022/01/05 09:25:24;;;;;;;8.48;1.58;;;;;;;;;;4947885;28;20031;-79
2022/01/05 09:27:51;;;;;;;14.02;1.35;;;;;;;;;;4941317;28;20035;-80
2022/01/05 09:30:18;;;;;;;11.40;1.77;;;;;;;;;;4960796;28;20326;-80
2022/01/05 09:32:44;;;;;;;13.52;1.20;;;;;;;;;;4938167;28;20510;-80
2022/01/05 09:35:14;;;;;;;10.43;1.52;;;;;;;;;;4947992;28;20041;-80
2022/01/05 09:37:52;;;;;;;13.60;2.28;;;;;;;;;;4944803;28;20530;-80
2022/01/05 09:43:04;;;;;;;24.73;1.85;;;;;;;;;;4958013;28;20668;-80
2022/01/05 09:45:32;;;;;;;14.25;3.70;;;;;;;;;;4944800;28;20284;-80
2022/01/05 09:48:17;;;;;;;8.88;1.70;;;;;;;;;;4944234;28;20479;-80
2022/01/05 09:51:02;;;;;;;20.95;2.63;;;;;;;;;;4942089;28;20073;-80
2022/01/05 09:53:30;;;;;;;11.55;2.35;;;;;;;;;;4945919;28;20035;-80
2022/01/05 09:55:57;;;;;;;19.30;1.90;;;;;;;;;;4959633;28;20039;-80
2022/01/05 09:58:24;;;;;;;11.55;1.90;;;;;;;;;;4958794;28;20034;-80
2022/01/05 10:00:51;;;;;;;23.73;3.72;;;;;;;;;;4943682;28;20495;-80
2022/01/05 10:03:17;;;;;;;30.10;2.10;;;;;;;;;;4958646;28;20039;-80
2022/01/05 10:05:43;;;;;;;23.33;2.72;;;;;;;;;;4943545;28;20562;-80
2022/01/05 10:08:10;;;;;;;31.25;2.92;;;;;;;;;;4942343;28;20127;-80
2022/01/05 10:10:46;;;;;;;4.65;1.50;;;;;;;;;;4940090;28;20023;-81
2022/01/05 10:13:12;;;;;;;21.40;3.13;;;;;;;;;;4938566;28;20050;-80
2022/01/05 10:15:38;;;;;;;7.20;2.17;;;;;;;;;;4944899;28;20035;-80
2022/01/05 10:18:15;;;;;;;8.57;2.25;;;;;;;;;;4940773;28;20123;-81
2022/01/05 10:20:54;;;;;;;12.20;2.63;;;;;;;;;;4942751;28;20103;-80
2022/01/05 10:23:37;;;;;;;12.70;2.65;;;;;;;;;;4948715;28;20091;-81
2022/01/05 10:26:23;;;;;;;13.57;2.75;;;;;;;;;;4953851;28;20368;-80
2022/01/05 10:28:49;;;;;;;33.10;5.80;;;;;;;;;;4955709;28;20038;-80
2022/01/05 10:31:20;;;;;;;9.15;2.67;;;;;;;;;;4938513;28;20043;-80
2022/01/05 10:33:46;;;;;;;17.50;2.80;;;;;;;;;;4956179;28;20039;-80
2022/01/05 10:36:12;;;;;;;13.75;2.70;;;;;;;;;;4940999;28;20094;-80
2022/01/05 10:38:41;;;;;;;25.05;3.53;;;;;;;;;;4916252;28;20031;-80
2022/01/05 10:41:17;;;;;;;11.25;1.60;;;;;;;;;;4937166;28;20034;-80
2022/01/05 10:43:43;;;;;;;;;;;;;;;;;;4934258;28;20621;-81
2022/01/05 10:46:09;;;;;;;10.93;1.50;;;;;;;;;;4922396;29;19910;-80
2022/01/05 10:48:39;;;;;;;21.73;2.05;;;;;;;;;;4920271;28;20047;-80
2022/01/05 10:51:07;;;;;;;21.10;3.03;;;;;;;;;;4935811;28;20555;-80
2022/01/05 10:53:33;;;;;;;24.73;3.55;;;;;;;;;;4920158;28;20439;-80
2022/01/05 10:55:59;;;;;;;12.65;2.00;;;;;;;;;;4926151;28;20043;-80
2022/01/05 10:58:25;;;;;;;19.15;3.08;;;;;;;;;;4919446;29;20054;-81
2022/01/05 11:00:52;;;;;;;30.38;2.95;;;;;;;;;;4933756;28;20526;-80
2022/01/05 11:03:35;;;;;;;11.93;2.65;;;;;;;;;;4925609;28;20471;-81
2022/01/05 11:06:15;;;;;;;29.23;3.92;;;;;;;;;;4917145;29;20061;-80
2022/01/05 11:08:58;;;;;;;15.88;4.20;;;;;;;;;;4940838;28;20151;-80
2022/01/05 11:11:44;;;;;;;25.02;4.97;;;;;;;;;;4913911;28;20570;-81
2022/01/05 11:14:21;;;;;;;26.80;4.82;;;;;;;;;;4923694;28;20050;-80
2022/01/05 11:16:50;;;;;;;14.00;5.57;;;;;;;;;;4920131;29;20128;-80
2022/01/05 11:19:19;;;;;;;10.50;2.83;;;;;;;;;;4935200;28;20027;-80
2022/01/05 11:22:04;;;;;;;16.13;3.90;;;;;;;;;;4922824;28;20082;-80
2022/01/05 11:24:31;;;;;;;14.13;3.75;;;;;;;;;;4914711;28;20031;-81
2022/01/05 11:26:58;;;;;;;17.15;5.80;;;;;;;;;;4921588;28;20042;-81
2022/01/05 11:29:24;;;;;;;11.63;4.57;;;;;;;;;;4914069;29;20518;-80
2022/01/05 11:31:51;;;;;;;26.02;5.82;;;;;;;;;;4921668;29;20031;-81
2022/01/05 11:34:17;;;;;;;20.10;3.92;;;;;;;;;;4926133;29;20551;-81
2022/01/05 11:36:50;;;;;;;19.60;1.85;;;;;;;;;;4926619;28;20577;-80
2022/01/05 11:39:16;;;;;;;10.30;3.10;;;;;;;;;;4921483;29;20064;-80
2022/01/05 11:41:44;;;;;;;13.52;3.28;;;;;;;;;;4918050;28;20036;-81
2022/01/05 11:44:10;;;;;;;6.60;2.20;;;;;;;;;;4935850;28;20440;-80
2022/01/05 11:46:37;;;;;;;22.92;3.30;;;;;;;;;;4919851;28;20035;-81
2022/01/05 11:49:07;;;;;;;20.95;3.38;;;;;;;;;;4940087;28;20475;-81
2022/01/05 11:51:43;;;;;;;15.65;1.67;;;;;;;;;;4921566;29;20503;-81
2022/01/05 11:54:15;;;;;;;14.90;2.85;;;;;;;;;;4919655;28;20091;-80
2022/01/05 11:56:42;;;;;;;27.40;4.50;;;;;;;;;;4937403;28;20054;-81
2022/01/05 11:59:19;;;;;;;25.80;3.97;;;;;;;;;;4920300;29;20023;-81
2022/01/05 12:01:57;;;;;;;19.95;3.72;;;;;;;;;;4922855;29;21135;-80
2022/01/05 12:04:23;;;;;;;11.88;2.65;;;;;;;;;;4939505;28;20039;-81
2022/01/05 12:06:49;;;;;;;16.05;3.25;;;;;;;;;;4922113;28;20059;-81
2022/01/05 12:09:20;;;;;;;20.95;3.55;;;;;;;;;;4918163;29;20033;-81
2022/01/05 12:11:46;;;;;;;14.85;3.35;;;;;;;;;;4919316;28;20410;-81
2022/01/05 12:14:21;;;;;;;9.52;1.80;;;;;;;;;;4926383;28;20443;-81
2022/01/05 12:17:03;;;;;;;10.82;3.67;;;;;;;;;;4920766;28;20047;-80
2022/01/05 12:19:55;;;;;;;12.68;2.67;;;;;;;;;;4925775;29;20047;-81
2022/01/05 12:22:23;;;;;;;15.32;2.83;;;;;;;;;;4921017;29;20039;-81
2022/01/05 12:24:55;;;;;;;6.63;1.27;;;;;;;;;;4936226;28;20613;-81
2022/01/05 12:27:25;;;;;;;5.88;0.75;;;;;;;;;;4923090;29;20570;-80
2022/01/05 12:29:51;;;;;;;17.67;1.95;;;;;;;;;;4921554;28;20102;-80
2022/01/05 12:32:36;;;;;;;5.70;1.88;;;;;;;;;;4930739;28;20042;-81
2022/01/05 12:35:06;;;;;;;17.48;2.40;;;;;;;;;;4926568;28;20042;-81
2022/01/05 12:37:52;;;;;;;16.40;3.13;;;;;;;;;;4950144;28;20043;-80
2022/01/05 12:40:27;;;;;;;13.27;2.30;;;;;;;;;;4954898;28;20026;-81
2022/01/05 12:43:12;;;;;;;11.80;2.08;;;;;;;;;;4960933;28;20083;-81
2022/01/05 12:45:58;;;;;;;16.33;3.53;;;;;;;;;;4963366;28;20166;-81
2022/01/05 12:48:35;;;;;;;12.13;2.60;;;;;;;;;;4947547;28;20035;-80
2022/01/05 12:51:16;;;;;;;9.25;1.45;;;;;;;;;;4948980;28;20520;-80
2022/01/05 12:53:56;;;;;;;24.48;3.65;;;;;;;;;;4944872;28;20099;-81
2022/01/05 12:56:23;;;;;;;47.58;8.45;;;;;;;;;;4944183;28;20041;-80
2022/01/05 12:58:51;;;;;;;17.63;2.83;;;;;;;;;;4944166;28;20036;-80
2022/01/05 13:01:18;;;;;;;15.68;2.05;;;;;;;;;;4942299;28;20558;-80
2022/01/05 13:03:44;;;;;;;22.80;3.53;;;;;;;;;;4946032;28;20035;-80
2022/01/05 13:06:21;;;;;;;16.20;2.85;;;;;;;;;;4957238;28;20035;-80
2022/01/05 13:08:48;;;;;;;15.63;1.70;;;;;;;;;;4950527;28;20089;-80
2022/01/05 13:11:34;;;;;;;9.18;1.48;;;;;;;;;;4941099;28;20031;-81
2022/01/05 13:14:18;;;;;;;13.50;1.90;;;;;;;;;;4938752;28;20043;-80
2022/01/05 13:16:45;;;;;;;15.55;2.83;;;;;;;;;;4947224;28;20435;-82
2022/01/05 13:19:30;;;;;;;16.73;3.33;;;;;;;;;;4941822;28;20434;-80
2022/01/05 13:21:57;;;;;;;18.90;3.45;;;;;;;;;;4963841;28;20039;-81
2022/01/05 13:24:26;;;;;;;11.48;1.95;;;;;;;;;;4938904;28;20039;-80
2022/01/05 13:26:59;;;;;;;11.02;2.10;;;;;;;;;;4948093;28;20566;-80
2022/01/05 13:29:28;;;;;;;21.60;4.20;;;;;;;;;;4943876;28;20030;-80
2022/01/05 13:31:58;;;;;;;29.83;5.15;;;;;;;;;;4946001;28;20540;-80
2022/01/05 13:34:44;;;;;;;25.33;3.38;;;;;;;;;;4957780;28;20069;-80
2022/01/05 13:37:10;;;;;;;23.17;3.58;;;;;;;;;;4949069;28;20027;-80
2022/01/05 13:39:46;;;;;;;23.45;3.10;;;;;;;;;;4945599;28;20645;-80
2022/01/05 13:42:14;;;;;;;5.20;1.73;;;;;;;;;;4958043;28;20621;-80
2022/01/05 13:44:41;;;;;;;13.10;2.80;;;;;;;;;;4944968;28;20023;-80
2022/01/05 13:47:08;;;;;;;16.65;2.33;;;;;;;;;;4947380;28;20523;-80
2022/01/05 13:49:34;;;;;;;9.07;1.55;;;;;;;;;;4944642;28;20047;-78
2022/01/05 13:52:01;;;;;;;18.08;1.90;;;;;;;;;;4947600;28;20516;-80
2022/01/05 13:54:27;;;;;;;4.53;0.90;;;;;;;;;;4942213;28;20450;-80
2022/01/05 13:56:53;;;;;;;20.63;2.22;;;;;;;;;;4949810;28;20526;-80
2022/01/05 13:59:27;;;;;;;20.13;2.05;;;;;;;;;;4936032;28;20027;-80
2022/01/05 14:01:58;;;;;;;10.82;1.75;;;;;;;;;;4962592;28;20086;-80
2022/01/05 14:04:24;;;;;;;24.45;3.97;;;;;;;;;;4946311;28;20054;-80
2022/01/05 14:07:00;;;;;;;20.90;3.20;;;;;;;;;;4947571;28;20026;-79
2022/01/05 14:09:29;;;;;;;29.40;2.92;;;;;;;;;;4941849;28;20129;-79
2022/01/05 14:11:59;;;;;;;34.35;5.53;;;;;;;;;;4940390;28;20050;-79
2022/01/05 14:14:25;;;;;;;11.73;2.13;;;;;;;;;;4948307;28;20046;-79
2022/01/05 14:16:52;;;;;;;13.75;2.35;;;;;;;;;;4953663;28;20500;-80
2022/01/05 14:19:25;;;;;;;19.55;2.38;;;;;;;;;;4944057;28;20043;-79
2022/01/05 14:21:52;;;;;;;16.42;2.22;;;;;;;;;;4944518;28;20114;-80
2022/01/05 14:24:28;;;;;;;19.52;3.05;;;;;;;;;;4945017;28;20032;-79
2022/01/05 14:26:54;;;;;;;27.98;4.05;;;;;;;;;;4947539;28;20034;-79
2022/01/05 14:29:24;;;;;;;20.75;3.28;;;;;;;;;;4959658;28;20090;-80
2022/01/05 14:31:50;;;;;;;21.35;2.40;;;;;;;;;;4946868;28;20656;-79
2022/01/05 14:34:19;;;;;;;15.20;2.08;;;;;;;;;;4951169;28;20038;-79
2022/01/05 14:36:47;;;;;;;35.22;4.13;;;;;;;;;;4958967;28;20082;-80
2022/01/05 14:39:14;;;;;;;10.65;1.67;;;;;;;;;;4957687;28;20062;-79
2022/01/05 14:41:56;;;;;;;33.10;4.50;;;;;;;;;;4941261;28;20526;-80
2022/01/05 14:44:30;;;;;;;28.75;4.15;;;;;;;;;;4937999;28;20054;-80